sensor_id;sensor_type;location;lat;lon;timestamp;pressure;altitude;pressure_sealevel;temperature;humidity
12360;BME280;6244;51.460;7.090;2022-12-08T00:01:15;49022.41;;;-141.68;70.71
12360;BME280;6244;51.460;7.090;2022-12-08T00:06:23;49024.41;;;-141.68;70.48
12360;BME280;6244;51.460;7.090;2022-12-08T00:11:38;49024.41;;;-141.68;70.82
12360;BME280;6244;51.460;7.090;2022-12-08T00:16:34;49024.41;;;-141.68;70.47
12360;BME280;6244;51.460;7.090;2022-12-08T00:21:32;49024.41;;;-141.68;70.44
12360;BME280;6244;51.460;7.090;2022-12-08T00:26:29;49024.41;;;-141.68;70.57
12360;BME280;6244;51.460;7.090;2022-12-08T00:31:25;49022.41;;;-141.68;70.57
12360;BME280;6244;51.460;7.090;2022-12-08T00:36:22;49026.38;;;-141.68;70.59
12360;BME280;6244;51.460;7.090;2022-12-08T00:41:21;49026.38;;;-141.68;70.62
12360;BME280;6244;51.460;7.090;2022-12-08T00:46:38;49026.38;;;-141.68;70.68
12360;BME280;6244;51.460;7.090;2022-12-08T00:51:35;49024.41;;;-141.68;70.57
12360;BME280;6244;51.460;7.090;2022-12-08T00:56:33;49024.41;;;-141.68;70.46
12360;BME280;6244;51.460;7.090;2022-12-08T01:01:30;49024.41;;;-141.68;70.50
12360;BME280;6244;51.460;7.090;2022-12-08T01:06:27;49024.41;;;-141.68;70.61
12360;BME280;6244;51.460;7.090;2022-12-08T01:11:23;49026.38;;;-141.68;70.67
12360;BME280;6244;51.460;7.090;2022-12-08T01:16:23;49024.41;;;-141.68;70.55
12360;BME280;6244;51.460;7.090;2022-12-08T01:21:19;49026.38;;;-141.68;70.84
12360;BME280;6244;51.460;7.090;2022-12-08T01:26:17;49024.41;;;-141.68;70.78
12360;BME280;6244;51.460;7.090;2022-12-08T01:31:14;49024.41;;;-141.68;71.08
12360;BME280;6244;51.460;7.090;2022-12-08T01:36:19;49026.38;;;-141.68;70.96
12360;BME280;6244;51.460;7.090;2022-12-08T01:41:17;49024.41;;;-141.68;71.10
12360;BME280;6244;51.460;7.090;2022-12-08T01:46:14;49026.38;;;-141.68;71.33
12360;BME280;6244;51.460;7.090;2022-12-08T01:51:10;49026.38;;;-141.68;71.43
12360;BME280;6244;51.460;7.090;2022-12-08T01:56:10;49026.38;;;-141.68;71.62
12360;BME280;6244;51.460;7.090;2022-12-08T02:01:08;49028.38;;;-141.68;71.41
12360;BME280;6244;51.460;7.090;2022-12-08T02:06:05;49026.38;;;-141.68;71.29
12360;BME280;6244;51.460;7.090;2022-12-08T02:11:04;49026.38;;;-141.68;71.20
12360;BME280;6244;51.460;7.090;2022-12-08T02:16:05;49026.38;;;-141.68;71.04
12360;BME280;6244;51.460;7.090;2022-12-08T02:21:08;49024.41;;;-141.68;70.84
12360;BME280;6244;51.460;7.090;2022-12-08T02:26:37;49026.38;;;-141.68;70.94
12360;BME280;6244;51.460;7.090;2022-12-08T02:31:50;49024.41;;;-141.68;71.08
12360;BME280;6244;51.460;7.090;2022-12-08T02:37:00;49026.38;;;-141.68;71.04
12360;BME280;6244;51.460;7.090;2022-12-08T02:42:07;49024.41;;;-141.68;70.90
12360;BME280;6244;51.460;7.090;2022-12-08T02:47:09;49026.38;;;-141.68;70.91
12360;BME280;6244;51.460;7.090;2022-12-08T02:52:38;49026.38;;;-141.68;71.11
12360;BME280;6244;51.460;7.090;2022-12-08T02:57:41;49024.41;;;-141.68;70.89
12360;BME280;6244;51.460;7.090;2022-12-08T03:02:46;49026.38;;;-141.68;70.90
12360;BME280;6244;51.460;7.090;2022-12-08T03:07:55;49024.41;;;-141.68;70.92
12360;BME280;6244;51.460;7.090;2022-12-08T03:12:57;49024.41;;;-141.68;70.85
12360;BME280;6244;51.460;7.090;2022-12-08T03:17:57;49026.38;;;-141.68;71.11
12360;BME280;6244;51.460;7.090;2022-12-08T03:22:58;49026.38;;;-141.68;71.18
12360;BME280;6244;51.460;7.090;2022-12-08T03:27:55;49026.38;;;-141.68;71.32
12360;BME280;6244;51.460;7.090;2022-12-08T03:32:55;49022.41;;;-141.68;71.47
12360;BME280;6244;51.460;7.090;2022-12-08T03:38:02;49026.38;;;-141.68;71.51
12360;BME280;6244;51.460;7.090;2022-12-08T03:42:59;49026.38;;;-141.68;71.67
12360;BME280;6244;51.460;7.090;2022-12-08T03:47:55;49024.41;;;-141.68;71.69
12360;BME280;6244;51.460;7.090;2022-12-08T03:52:52;49024.41;;;-141.68;71.85
12360;BME280;6244;51.460;7.090;2022-12-08T03:57:50;49024.41;;;-141.68;71.39
12360;BME280;6244;51.460;7.090;2022-12-08T04:02:46;49026.38;;;-141.68;71.50
12360;BME280;6244;51.460;7.090;2022-12-08T04:07:43;49026.38;;;-141.68;71.44
12360;BME280;6244;51.460;7.090;2022-12-08T04:12:39;49026.38;;;-141.68;71.68
12360;BME280;6244;51.460;7.090;2022-12-08T04:17:37;49024.41;;;-141.68;71.76
12360;BME280;6244;51.460;7.090;2022-12-08T04:22:33;49024.41;;;-141.68;71.92
12360;BME280;6244;51.460;7.090;2022-12-08T04:27:30;49026.38;;;-141.68;71.95
12360;BME280;6244;51.460;7.090;2022-12-08T04:32:26;49024.41;;;-141.68;72.01
12360;BME280;6244;51.460;7.090;2022-12-08T04:37:24;49024.41;;;-141.68;72.07
12360;BME280;6244;51.460;7.090;2022-12-08T04:42:21;49024.41;;;-141.68;72.08
12360;BME280;6244;51.460;7.090;2022-12-08T04:47:17;49024.41;;;-141.68;72.24
12360;BME280;6244;51.460;7.090;2022-12-08T04:52:14;49024.41;;;-141.68;72.45
12360;BME280;6244;51.460;7.090;2022-12-08T04:57:13;49026.38;;;-141.68;72.72
12360;BME280;6244;51.460;7.090;2022-12-08T05:02:10;49026.38;;;-141.68;72.90
12360;BME280;6244;51.460;7.090;2022-12-08T05:07:07;49024.41;;;-141.68;73.09
12360;BME280;6244;51.460;7.090;2022-12-08T05:12:04;49026.38;;;-141.68;73.10
12360;BME280;6244;51.460;7.090;2022-12-08T05:17:01;49026.38;;;-141.68;73.25
12360;BME280;6244;51.460;7.090;2022-12-08T05:21:58;49026.38;;;-141.68;73.61
12360;BME280;6244;51.460;7.090;2022-12-08T05:26:54;49024.41;;;-141.68;73.50
12360;BME280;6244;51.460;7.090;2022-12-08T05:31:51;49026.38;;;-141.68;73.48
12360;BME280;6244;51.460;7.090;2022-12-08T05:36:49;49026.38;;;-141.68;73.62
12360;BME280;6244;51.460;7.090;2022-12-08T05:41:45;49024.41;;;-141.68;73.71
12360;BME280;6244;51.460;7.090;2022-12-08T05:46:42;49024.41;;;-141.68;73.83
12360;BME280;6244;51.460;7.090;2022-12-08T05:51:38;49024.41;;;-141.68;73.84
12360;BME280;6244;51.460;7.090;2022-12-08T05:56:36;49026.38;;;-141.68;73.83
12360;BME280;6244;51.460;7.090;2022-12-08T06:01:33;49024.41;;;-141.68;73.73
12360;BME280;6244;51.460;7.090;2022-12-08T06:06:29;49024.41;;;-141.68;73.80
12360;BME280;6244;51.460;7.090;2022-12-08T06:11:27;49024.41;;;-141.68;73.59
12360;BME280;6244;51.460;7.090;2022-12-08T06:16:25;49026.38;;;-141.68;73.67
12360;BME280;6244;51.460;7.090;2022-12-08T06:21:23;49024.41;;;-141.68;73.65
12360;BME280;6244;51.460;7.090;2022-12-08T06:26:20;49026.38;;;-141.68;73.76
12360;BME280;6244;51.460;7.090;2022-12-08T06:31:18;49026.38;;;-141.68;73.75
12360;BME280;6244;51.460;7.090;2022-12-08T06:36:17;49024.41;;;-141.68;73.74
12360;BME280;6244;51.460;7.090;2022-12-08T06:41:14;49022.41;;;-141.68;73.82
12360;BME280;6244;51.460;7.090;2022-12-08T06:46:12;49028.38;;;-141.68;73.97
12360;BME280;6244;51.460;7.090;2022-12-08T06:51:10;49026.38;;;-141.68;73.99
12360;BME280;6244;51.460;7.090;2022-12-08T06:56:08;49024.41;;;-141.68;73.81
12360;BME280;6244;51.460;7.090;2022-12-08T07:01:06;49024.41;;;-141.68;73.99
12360;BME280;6244;51.460;7.090;2022-12-08T07:06:02;49026.38;;;-141.68;74.28
12360;BME280;6244;51.460;7.090;2022-12-08T07:11:05;49026.38;;;-141.68;74.19
12360;BME280;6244;51.460;7.090;2022-12-08T07:16:05;49026.38;;;-141.68;74.09
12360;BME280;6244;51.460;7.090;2022-12-08T07:21:03;49024.41;;;-141.68;73.81
12360;BME280;6244;51.460;7.090;2022-12-08T07:26:00;49024.41;;;-141.68;73.96
12360;BME280;6244;51.460;7.090;2022-12-08T07:30:57;49024.41;;;-141.68;73.88
12360;BME280;6244;51.460;7.090;2022-12-08T07:35:56;49026.38;;;-141.68;73.78
12360;BME280;6244;51.460;7.090;2022-12-08T07:40:53;49026.38;;;-141.68;73.93
12360;BME280;6244;51.460;7.090;2022-12-08T07:45:50;49024.41;;;-141.68;73.92
12360;BME280;6244;51.460;7.090;2022-12-08T07:50:46;49026.38;;;-141.68;73.98
12360;BME280;6244;51.460;7.090;2022-12-08T07:55:44;49024.41;;;-141.68;74.04
12360;BME280;6244;51.460;7.090;2022-12-08T08:00:41;49024.41;;;-141.68;73.98
12360;BME280;6244;51.460;7.090;2022-12-08T08:05:37;49026.38;;;-141.68;74.22
12360;BME280;6244;51.460;7.090;2022-12-08T08:10:34;49024.41;;;-141.68;73.84
12360;BME280;6244;51.460;7.090;2022-12-08T08:15:31;49026.38;;;-141.68;73.66
12360;BME280;6244;51.460;7.090;2022-12-08T08:20:28;49026.38;;;-141.68;73.53
12360;BME280;6244;51.460;7.090;2022-12-08T08:25:24;49026.38;;;-141.68;73.53
12360;BME280;6244;51.460;7.090;2022-12-08T08:30:20;49024.41;;;-141.68;73.39
12360;BME280;6244;51.460;7.090;2022-12-08T08:35:18;49026.38;;;-141.68;73.51
12360;BME280;6244;51.460;7.090;2022-12-08T08:40:15;49024.41;;;-141.68;73.64
12360;BME280;6244;51.460;7.090;2022-12-08T08:45:11;49026.38;;;-141.68;73.65
12360;BME280;6244;51.460;7.090;2022-12-08T08:50:08;49024.41;;;-141.68;73.58
12360;BME280;6244;51.460;7.090;2022-12-08T08:55:06;49022.41;;;-141.68;73.76
12360;BME280;6244;51.460;7.090;2022-12-08T09:00:04;49026.38;;;-141.68;73.62
12360;BME280;6244;51.460;7.090;2022-12-08T09:05:00;49024.41;;;-141.68;73.57
12360;BME280;6244;51.460;7.090;2022-12-08T09:09:57;49024.41;;;-141.68;73.64
12360;BME280;6244;51.460;7.090;2022-12-08T09:14:55;49024.41;;;-141.68;73.49
12360;BME280;6244;51.460;7.090;2022-12-08T09:19:51;49024.41;;;-141.68;73.48
12360;BME280;6244;51.460;7.090;2022-12-08T09:24:48;49026.38;;;-141.68;73.84
12360;BME280;6244;51.460;7.090;2022-12-08T09:29:44;49026.38;;;-141.68;73.56
12360;BME280;6244;51.460;7.090;2022-12-08T09:34:42;49026.38;;;-141.68;73.57
12360;BME280;6244;51.460;7.090;2022-12-08T09:39:39;49026.38;;;-141.68;73.50
12360;BME280;6244;51.460;7.090;2022-12-08T09:44:37;49026.38;;;-141.68;73.50
12360;BME280;6244;51.460;7.090;2022-12-08T09:49:40;49026.38;;;-141.68;73.71
12360;BME280;6244;51.460;7.090;2022-12-08T09:54:40;49026.38;;;-141.68;73.80
12360;BME280;6244;51.460;7.090;2022-12-08T09:59:37;49022.41;;;-141.68;73.67
12360;BME280;6244;51.460;7.090;2022-12-08T10:04:36;49026.38;;;-141.68;73.90
12360;BME280;6244;51.460;7.090;2022-12-08T10:09:38;49024.41;;;-141.68;73.87
12360;BME280;6244;51.460;7.090;2022-12-08T10:14:41;49024.41;;;-141.68;73.85
12360;BME280;6244;51.460;7.090;2022-12-08T10:19:39;49024.41;;;-141.68;73.84
12360;BME280;6244;51.460;7.090;2022-12-08T10:24:40;49024.41;;;-141.68;74.17
12360;BME280;6244;51.460;7.090;2022-12-08T10:29:40;49026.38;;;-141.68;73.97
12360;BME280;6244;51.460;7.090;2022-12-08T10:34:58;49026.38;;;-141.68;74.30
12360;BME280;6244;51.460;7.090;2022-12-08T10:39:59;49024.41;;;-141.68;74.13
12360;BME280;6244;51.460;7.090;2022-12-08T10:45:07;49026.38;;;-141.68;74.33
12360;BME280;6244;51.460;7.090;2022-12-08T10:50:15;49026.38;;;-141.68;74.49
12360;BME280;6244;51.460;7.090;2022-12-08T10:55:14;49024.41;;;-141.68;74.53
12360;BME280;6244;51.460;7.090;2022-12-08T11:00:15;49026.38;;;-141.68;74.47
12360;BME280;6244;51.460;7.090;2022-12-08T11:05:15;49024.41;;;-141.68;74.40
12360;BME280;6244;51.460;7.090;2022-12-08T11:10:13;49026.38;;;-141.68;74.26
12360;BME280;6244;51.460;7.090;2022-12-08T11:15:14;49026.38;;;-141.68;74.24
12360;BME280;6244;51.460;7.090;2022-12-08T11:20:20;49024.41;;;-141.68;74.22
12360;BME280;6244;51.460;7.090;2022-12-08T11:25:19;49024.41;;;-141.68;74.29
12360;BME280;6244;51.460;7.090;2022-12-08T11:30:19;49026.38;;;-141.68;74.34
12360;BME280;6244;51.460;7.090;2022-12-08T11:35:21;49024.41;;;-141.68;74.39
12360;BME280;6244;51.460;7.090;2022-12-08T11:40:22;49024.41;;;-141.68;74.57
12360;BME280;6244;51.460;7.090;2022-12-08T11:45:24;49026.38;;;-141.68;74.73
12360;BME280;6244;51.460;7.090;2022-12-08T11:50:27;49024.41;;;-141.68;74.54
12360;BME280;6244;51.460;7.090;2022-12-08T11:55:31;49022.41;;;-141.68;74.62
12360;BME280;6244;51.460;7.090;2022-12-08T12:00:31;49026.38;;;-141.68;74.50
12360;BME280;6244;51.460;7.090;2022-12-08T12:05:30;49024.41;;;-141.68;74.71
12360;BME280;6244;51.460;7.090;2022-12-08T12:10:43;49024.41;;;-141.68;74.42
12360;BME280;6244;51.460;7.090;2022-12-08T12:20:59;49024.41;;;-141.68;73.74
12360;BME280;6244;51.460;7.090;2022-12-08T12:25:58;49024.41;;;-141.68;74.21
12360;BME280;6244;51.460;7.090;2022-12-08T12:30:57;49022.41;;;-141.68;74.56
12360;BME280;6244;51.460;7.090;2022-12-08T12:36:01;49026.38;;;-141.68;74.71
12360;BME280;6244;51.460;7.090;2022-12-08T12:41:00;49026.38;;;-141.68;74.59
12360;BME280;6244;51.460;7.090;2022-12-08T12:51:44;49026.38;;;-141.68;74.46
12360;BME280;6244;51.460;7.090;2022-12-08T12:56:49;49026.38;;;-141.68;73.79
12360;BME280;6244;51.460;7.090;2022-12-08T13:01:50;49026.38;;;-141.68;73.85
12360;BME280;6244;51.460;7.090;2022-12-08T13:06:50;49026.38;;;-141.68;74.09
12360;BME280;6244;51.460;7.090;2022-12-08T13:11:48;49022.41;;;-141.68;74.24
12360;BME280;6244;51.460;7.090;2022-12-08T13:16:52;49026.38;;;-141.68;74.33
12360;BME280;6244;51.460;7.090;2022-12-08T13:21:51;49028.38;;;-141.68;74.47
12360;BME280;6244;51.460;7.090;2022-12-08T13:26:48;49026.38;;;-141.68;74.67
12360;BME280;6244;51.460;7.090;2022-12-08T13:31:47;49026.38;;;-141.68;74.49
12360;BME280;6244;51.460;7.090;2022-12-08T13:36:54;49024.41;;;-141.68;74.74
12360;BME280;6244;51.460;7.090;2022-12-08T13:41:57;49026.38;;;-141.68;74.61
12360;BME280;6244;51.460;7.090;2022-12-08T13:46:56;49026.38;;;-141.68;74.42
12360;BME280;6244;51.460;7.090;2022-12-08T13:51:55;49024.41;;;-141.68;74.42
12360;BME280;6244;51.460;7.090;2022-12-08T13:56:53;49026.38;;;-141.68;74.61
12360;BME280;6244;51.460;7.090;2022-12-08T14:01:51;49026.38;;;-141.68;74.48
12360;BME280;6244;51.460;7.090;2022-12-08T14:06:49;49024.41;;;-141.68;74.16
12360;BME280;6244;51.460;7.090;2022-12-08T14:11:49;49026.38;;;-141.68;74.20
12360;BME280;6244;51.460;7.090;2022-12-08T14:16:52;49024.41;;;-141.68;74.34
12360;BME280;6244;51.460;7.090;2022-12-08T14:21:54;49024.41;;;-141.68;74.40
12360;BME280;6244;51.460;7.090;2022-12-08T14:26:54;49026.38;;;-141.68;74.29
12360;BME280;6244;51.460;7.090;2022-12-08T14:31:51;49026.38;;;-141.68;74.39
12360;BME280;6244;51.460;7.090;2022-12-08T14:36:48;49026.38;;;-141.68;74.34
12360;BME280;6244;51.460;7.090;2022-12-08T14:41:58;49024.41;;;-141.68;74.53
12360;BME280;6244;51.460;7.090;2022-12-08T14:47:06;49024.41;;;-141.68;74.67
12360;BME280;6244;51.460;7.090;2022-12-08T14:52:07;49024.41;;;-141.68;74.62
12360;BME280;6244;51.460;7.090;2022-12-08T14:57:05;49026.38;;;-141.68;74.83
12360;BME280;6244;51.460;7.090;2022-12-08T15:02:10;49026.38;;;-141.68;74.75
12360;BME280;6244;51.460;7.090;2022-12-08T15:07:11;49026.38;;;-141.68;74.86
12360;BME280;6244;51.460;7.090;2022-12-08T15:12:20;49024.41;;;-141.68;75.04
12360;BME280;6244;51.460;7.090;2022-12-08T15:17:30;49024.41;;;-141.68;75.09
12360;BME280;6244;51.460;7.090;2022-12-08T15:22:28;49024.41;;;-141.68;75.25
12360;BME280;6244;51.460;7.090;2022-12-08T15:27:27;49024.41;;;-141.68;75.15
12360;BME280;6244;51.460;7.090;2022-12-08T15:32:24;49024.41;;;-141.68;75.14
12360;BME280;6244;51.460;7.090;2022-12-08T15:37:22;49026.38;;;-141.68;75.11
12360;BME280;6244;51.460;7.090;2022-12-08T15:42:19;49022.41;;;-141.68;75.14
12360;BME280;6244;51.460;7.090;2022-12-08T15:47:18;49022.41;;;-141.68;75.28
12360;BME280;6244;51.460;7.090;2022-12-08T15:52:17;49026.38;;;-141.68;75.34
12360;BME280;6244;51.460;7.090;2022-12-08T15:57:16;49026.38;;;-141.68;75.22
12360;BME280;6244;51.460;7.090;2022-12-08T16:02:14;49024.41;;;-141.68;75.15
12360;BME280;6244;51.460;7.090;2022-12-08T16:07:18;49024.41;;;-141.68;75.30
12360;BME280;6244;51.460;7.090;2022-12-08T16:12:18;49024.41;;;-141.68;75.19
12360;BME280;6244;51.460;7.090;2022-12-08T16:17:33;49022.41;;;-141.68;75.21
12360;BME280;6244;51.460;7.090;2022-12-08T16:22:32;49024.41;;;-141.68;75.32
12360;BME280;6244;51.460;7.090;2022-12-08T16:27:29;49024.41;;;-141.68;75.28
12360;BME280;6244;51.460;7.090;2022-12-08T16:32:26;49024.41;;;-141.68;75.33
12360;BME280;6244;51.460;7.090;2022-12-08T16:37:24;49026.38;;;-141.68;75.41
12360;BME280;6244;51.460;7.090;2022-12-08T16:42:25;49024.41;;;-141.68;75.50
12360;BME280;6244;51.460;7.090;2022-12-08T16:47:39;49026.38;;;-141.68;75.48
12360;BME280;6244;51.460;7.090;2022-12-08T16:52:36;49024.41;;;-141.68;75.43
12360;BME280;6244;51.460;7.090;2022-12-08T16:57:34;49022.41;;;-141.68;75.55
12360;BME280;6244;51.460;7.090;2022-12-08T17:02:31;49024.41;;;-141.68;75.61
12360;BME280;6244;51.460;7.090;2022-12-08T17:07:28;49024.41;;;-141.68;75.44
12360;BME280;6244;51.460;7.090;2022-12-08T17:12:24;49024.41;;;-141.68;75.49
12360;BME280;6244;51.460;7.090;2022-12-08T17:17:22;49026.38;;;-141.68;75.35
12360;BME280;6244;51.460;7.090;2022-12-08T17:22:19;49026.38;;;-141.68;75.04
12360;BME280;6244;51.460;7.090;2022-12-08T17:27:16;49026.38;;;-141.68;75.10
12360;BME280;6244;51.460;7.090;2022-12-08T17:32:12;49026.38;;;-141.68;75.01
12360;BME280;6244;51.460;7.090;2022-12-08T17:37:10;49024.41;;;-141.68;74.84
12360;BME280;6244;51.460;7.090;2022-12-08T17:42:07;49026.38;;;-141.68;74.43
12360;BME280;6244;51.460;7.090;2022-12-08T17:47:04;49024.41;;;-141.68;74.22
12360;BME280;6244;51.460;7.090;2022-12-08T17:52:01;49026.38;;;-141.68;74.20
12360;BME280;6244;51.460;7.090;2022-12-08T17:56:59;49026.38;;;-141.68;74.20
12360;BME280;6244;51.460;7.090;2022-12-08T18:01:56;49028.38;;;-141.68;74.26
12360;BME280;6244;51.460;7.090;2022-12-08T18:06:52;49026.38;;;-141.68;74.29
12360;BME280;6244;51.460;7.090;2022-12-08T18:11:50;49028.38;;;-141.68;74.13
12360;BME280;6244;51.460;7.090;2022-12-08T18:16:47;49022.41;;;-141.68;74.04
12360;BME280;6244;51.460;7.090;2022-12-08T18:21:44;49028.38;;;-141.68;73.82
12360;BME280;6244;51.460;7.090;2022-12-08T18:26:40;49024.41;;;-141.68;73.92
12360;BME280;6244;51.460;7.090;2022-12-08T18:31:37;49026.38;;;-141.68;73.84
12360;BME280;6244;51.460;7.090;2022-12-08T18:36:35;49024.41;;;-141.68;73.79
12360;BME280;6244;51.460;7.090;2022-12-08T18:41:31;49024.41;;;-141.68;74.02
12360;BME280;6244;51.460;7.090;2022-12-08T18:46:28;49026.38;;;-141.68;73.91
12360;BME280;6244;51.460;7.090;2022-12-08T18:51:24;49026.38;;;-141.68;73.79
12360;BME280;6244;51.460;7.090;2022-12-08T18:56:24;49024.41;;;-141.68;73.83
12360;BME280;6244;51.460;7.090;2022-12-08T19:01:21;49024.41;;;-141.68;74.01
12360;BME280;6244;51.460;7.090;2022-12-08T19:06:18;49024.41;;;-141.68;73.99
12360;BME280;6244;51.460;7.090;2022-12-08T19:11:18;49022.41;;;-141.68;73.76
12360;BME280;6244;51.460;7.090;2022-12-08T19:16:16;49028.38;;;-141.68;73.59
12360;BME280;6244;51.460;7.090;2022-12-08T19:21:12;49024.41;;;-141.68;73.67
12360;BME280;6244;51.460;7.090;2022-12-08T19:26:10;49026.38;;;-141.68;73.76
12360;BME280;6244;51.460;7.090;2022-12-08T19:31:07;49024.41;;;-141.68;73.76
12360;BME280;6244;51.460;7.090;2022-12-08T19:36:07;49024.41;;;-141.68;73.68
12360;BME280;6244;51.460;7.090;2022-12-08T19:41:07;49024.41;;;-141.68;73.66
12360;BME280;6244;51.460;7.090;2022-12-08T19:46:21;49022.41;;;-141.68;73.64
12360;BME280;6244;51.460;7.090;2022-12-08T19:51:20;49024.41;;;-141.68;73.70
12360;BME280;6244;51.460;7.090;2022-12-08T19:56:17;49026.38;;;-141.68;73.76
12360;BME280;6244;51.460;7.090;2022-12-08T20:01:14;49026.38;;;-141.68;74.12
12360;BME280;6244;51.460;7.090;2022-12-08T20:06:12;49026.38;;;-141.68;74.22
12360;BME280;6244;51.460;7.090;2022-12-08T20:11:11;49026.38;;;-141.68;74.22
12360;BME280;6244;51.460;7.090;2022-12-08T20:16:08;49026.38;;;-141.68;74.34
12360;BME280;6244;51.460;7.090;2022-12-08T20:21:05;49024.41;;;-141.68;74.36
12360;BME280;6244;51.460;7.090;2022-12-08T20:26:02;49026.38;;;-141.68;74.58
12360;BME280;6244;51.460;7.090;2022-12-08T20:31:00;49024.41;;;-141.68;74.60
12360;BME280;6244;51.460;7.090;2022-12-08T20:35:59;49026.38;;;-141.68;74.39
12360;BME280;6244;51.460;7.090;2022-12-08T20:40:56;49026.38;;;-141.68;74.18
12360;BME280;6244;51.460;7.090;2022-12-08T20:45:53;49024.41;;;-141.68;74.37
12360;BME280;6244;51.460;7.090;2022-12-08T20:50:51;49022.41;;;-141.68;74.40
12360;BME280;6244;51.460;7.090;2022-12-08T20:55:48;49024.41;;;-141.68;74.55
12360;BME280;6244;51.460;7.090;2022-12-08T21:00:45;49026.38;;;-141.68;74.81
12360;BME280;6244;51.460;7.090;2022-12-08T21:05:46;49024.41;;;-141.68;74.86
12360;BME280;6244;51.460;7.090;2022-12-08T21:10:44;49026.38;;;-141.68;75.03
12360;BME280;6244;51.460;7.090;2022-12-08T21:15:43;49026.38;;;-141.68;75.29
12360;BME280;6244;51.460;7.090;2022-12-08T21:20:40;49026.38;;;-141.68;75.36
12360;BME280;6244;51.460;7.090;2022-12-08T21:25:38;49024.41;;;-141.68;75.48
12360;BME280;6244;51.460;7.090;2022-12-08T21:30:38;49024.41;;;-141.68;75.55
12360;BME280;6244;51.460;7.090;2022-12-08T21:35:35;49026.38;;;-141.68;75.48
12360;BME280;6244;51.460;7.090;2022-12-08T21:40:32;49026.38;;;-141.68;75.52
12360;BME280;6244;51.460;7.090;2022-12-08T21:45:29;49024.41;;;-141.68;75.53
12360;BME280;6244;51.460;7.090;2022-12-08T21:50:28;49026.38;;;-141.68;75.20
12360;BME280;6244;51.460;7.090;2022-12-08T21:55:24;49024.41;;;-141.68;75.08
12360;BME280;6244;51.460;7.090;2022-12-08T22:00:21;49022.41;;;-141.68;74.97
12360;BME280;6244;51.460;7.090;2022-12-08T22:05:18;49024.41;;;-141.68;74.88
12360;BME280;6244;51.460;7.090;2022-12-08T22:10:16;49024.41;;;-141.68;74.78
12360;BME280;6244;51.460;7.090;2022-12-08T22:15:13;49026.38;;;-141.68;74.54
12360;BME280;6244;51.460;7.090;2022-12-08T22:20:11;49026.38;;;-141.68;74.43
12360;BME280;6244;51.460;7.090;2022-12-08T22:25:09;49024.41;;;-141.68;74.46
12360;BME280;6244;51.460;7.090;2022-12-08T22:30:09;49024.41;;;-141.68;74.31
12360;BME280;6244;51.460;7.090;2022-12-08T22:35:06;49024.41;;;-141.68;74.17
12360;BME280;6244;51.460;7.090;2022-12-08T22:40:04;49026.38;;;-141.68;74.29
12360;BME280;6244;51.460;7.090;2022-12-08T22:45:01;49024.41;;;-141.68;74.67
12360;BME280;6244;51.460;7.090;2022-12-08T22:49:58;49026.38;;;-141.68;74.67
12360;BME280;6244;51.460;7.090;2022-12-08T22:54:55;49026.38;;;-141.68;74.64
12360;BME280;6244;51.460;7.090;2022-12-08T22:59:51;49028.38;;;-141.68;74.67
12360;BME280;6244;51.460;7.090;2022-12-08T23:04:48;49026.38;;;-141.68;74.41
12360;BME280;6244;51.460;7.090;2022-12-08T23:09:46;49024.41;;;-141.68;74.34
12360;BME280;6244;51.460;7.090;2022-12-08T23:14:42;49026.38;;;-141.68;74.22
12360;BME280;6244;51.460;7.090;2022-12-08T23:19:39;49024.41;;;-141.68;73.79
12360;BME280;6244;51.460;7.090;2022-12-08T23:24:36;49026.38;;;-141.68;74.22
12360;BME280;6244;51.460;7.090;2022-12-08T23:29:34;49024.41;;;-141.68;74.20
12360;BME280;6244;51.460;7.090;2022-12-08T23:34:30;49026.38;;;-141.68;74.34
12360;BME280;6244;51.460;7.090;2022-12-08T23:39:27;49026.38;;;-141.68;74.48
12360;BME280;6244;51.460;7.090;2022-12-08T23:44:24;49026.38;;;-141.68;74.61
12360;BME280;6244;51.460;7.090;2022-12-08T23:49:21;49024.41;;;-141.68;74.63
12360;BME280;6244;51.460;7.090;2022-12-08T23:54:18;49026.38;;;-141.68;74.77
12360;BME280;6244;51.460;7.090;2022-12-08T23:59:14;49026.38;;;-141.68;74.64
